Time;durP1;ratioP1;P1;durP2;ratioP2;P2;SDS_P1;SDS_P2;PMS_P1;PMS_P2;Temp;Humidity;BMP_temperature;BMP_pressure;BME280_temperature;BME280_humidity;BME280_pressure;Samples;Min_cycle;Max_cycle;Signal;HPM_P1;HPM_P2
2022/10/01 00:01:20;;;;;;;52.05;31.17;;;;;;;9.89;86.24;100109.61;1738718;81;25394;-67
2022/10/01 00:03:48;;;;;;;47.48;28.75;;;;;;;9.87;86.27;100105.86;1777716;79;27287;-67
2022/10/01 00:06:19;;;;;;;54.35;30.00;;;;;;;9.84;86.22;100105.15;1782281;79;25664;-67
2022/10/01 00:08:49;;;;;;;48.75;29.05;;;;;;;9.84;85.88;100105.15;1756283;80;25632;-67
2022/10/01 00:11:22;;;;;;;46.18;28.17;;;;;;;9.84;85.72;100106.50;1746399;80;25968;-67
2022/10/01 00:13:50;;;;;;;48.10;27.90;;;;;;;9.83;85.90;100107.59;1765819;80;25635;-67
2022/10/01 00:16:21;;;;;;;46.33;27.73;;;;;;;9.82;85.86;100107.34;1747922;80;27361;-69
2022/10/01 00:18:49;;;;;;;43.23;25.65;;;;;;;9.81;85.99;100105.76;1771819;79;25549;-67
2022/10/01 00:21:20;;;;;;;48.55;28.32;;;;;;;9.80;86.09;100107.41;1758566;80;25487;-66
2022/10/01 00:23:49;;;;;;;44.45;28.50;;;;;;;9.78;86.38;100115.82;1745369;80;25923;-67
2022/10/01 00:26:20;;;;;;;59.88;39.73;;;;;;;9.77;86.56;100118.27;1742689;80;25476;-68
2022/10/01 00:28:57;;;;;;;114.60;103.55;;;;;;;9.75;86.74;100116.99;1767169;79;27522;-68
2022/10/01 00:31:26;;;;;;;112.97;101.95;;;;;;;9.75;86.96;100116.99;1766832;79;25577;-69
2022/10/01 00:33:54;;;;;;;103.32;92.90;;;;;;;9.75;87.14;100116.99;1790798;79;25556;-66
2022/10/01 00:36:21;;;;;;;115.85;104.45;;;;;;;9.73;87.21;100118.65;1783451;78;26543;-67
2022/10/01 00:38:47;;;;;;;81.15;65.45;;;;;;;9.72;87.44;100108.41;1765051;79;25408;-68
2022/10/01 00:41:16;;;;;;;115.97;104.43;;;;;;;9.72;87.41;100116.51;1790460;79;27404;-68
2022/10/01 00:43:46;;;;;;;69.00;43.70;;;;;;;9.72;87.32;100126.49;1804456;78;25542;-68
2022/10/01 00:46:30;;;;;;;54.58;31.27;;;;;;;9.73;87.20;100126.75;1832491;78;25671;-66
2022/10/01 00:49:02;;;;;;;54.40;34.40;;;;;;;9.76;87.40;100130.75;1786059;78;25915;-66
2022/10/01 00:51:33;;;;;;;88.95;81.00;;;;;;;9.76;87.30;100126.70;1817468;78;25718;-67
2022/10/01 00:54:13;;;;;;;105.87;96.60;;;;;;;9.74;87.22;100127.01;1838567;78;27388;-66
2022/10/01 00:56:41;;;;;;;106.72;97.33;;;;;;;9.74;87.11;100132.41;1796970;78;25650;-66
2022/10/01 00:59:08;;;;;;;105.85;96.40;;;;;;;9.73;87.14;100134.29;1796225;79;25444;-66
2022/10/01 01:01:36;;;;;;;106.15;96.78;;;;;;;9.74;87.33;100137.81;1821436;78;26455;-67
2022/10/01 01:04:02;;;;;;;112.12;101.82;;;;;;;9.73;87.43;100129.45;1830335;78;25451;-66
2022/10/01 01:06:29;;;;;;;111.95;101.95;;;;;;;9.72;87.61;100128.66;1802400;78;27386;-66
2022/10/01 01:08:55;;;;;;;109.75;99.72;;;;;;;9.72;87.59;100121.91;1776350;79;25681;-67
2022/10/01 01:11:30;;;;;;;107.10;97.47;;;;;;;9.72;87.91;100116.51;1785689;78;25649;-66
2022/10/01 01:14:13;;;;;;;109.50;99.80;;;;;;;9.70;88.02;100106.57;1801535;78;25973;-68
2022/10/01 01:16:53;;;;;;;80.28;71.92;;;;;;;9.71;88.16;100112.20;1804521;78;25620;-68
2022/10/01 01:19:52;;;;;;;50.23;29.55;;;;;;;9.72;88.20;100114.34;1781678;78;27385;-68
2022/10/01 01:22:22;;;;;;;45.75;27.13;;;;;;;9.72;87.96;100115.69;1812107;78;25512;-66
2022/10/01 01:24:56;;;;;;;41.50;25.82;;;;;;;9.72;87.91;100112.98;1773813;79;25464;-66
2022/10/01 01:27:34;;;;;;;63.65;55.75;;;;;;;9.72;87.98;100117.04;1808572;78;26003;-66
2022/10/01 01:30:14;;;;;;;111.45;100.85;;;;;;;9.71;88.11;100114.91;1756223;78;25500;-69
2022/10/01 01:33:04;;;;;;;105.37;95.85;;;;;;;9.71;88.26;100110.06;1739850;80;27333;-67
2022/10/01 01:35:48;;;;;;;103.78;94.70;;;;;;;9.70;88.48;100103.88;1768113;79;25673;-66
2022/10/01 01:38:19;;;;;;;72.32;65.00;;;;;;;9.69;88.28;100114.41;1747207;80;25657;-68
2022/10/01 01:40:51;;;;;;;43.55;26.73;;;;;;;9.70;88.21;100115.20;1780329;79;25891;-68
2022/10/01 01:43:25;;;;;;;49.58;27.60;;;;;;;9.70;88.13;100118.72;1742173;81;25663;-66
2022/10/01 01:45:53;;;;;;;104.07;94.95;;;;;;;9.70;88.39;100128.18;1764504;79;27351;-68
2022/10/01 01:48:23;;;;;;;106.75;97.47;;;;;;;9.71;88.44;100130.31;1790555;78;25685;-66
2022/10/01 01:50:56;;;;;;;;;;;;;;;9.70;88.54;100123.31;1758921;80;25705;-66
2022/10/01 01:53:23;;;;;;;105.58;96.45;;;;;;;9.70;88.75;100121.42;1763411;79;28135;-66
2022/10/01 01:55:50;;;;;;;106.70;96.50;;;;;;;9.70;88.89;100133.58;1747411;80;25480;-66
2022/10/01 01:58:19;;;;;;;106.22;96.90;;;;;;;9.69;88.92;100131.97;1748731;79;27319;-66
2022/10/01 02:00:51;;;;;;;105.50;95.75;;;;;;;9.69;88.76;100130.62;1747402;80;25466;-66
2022/10/01 02:03:21;;;;;;;106.12;96.90;;;;;;;9.70;88.80;100131.41;1746083;80;25573;-66
2022/10/01 02:05:58;;;;;;;108.07;98.30;;;;;;;9.70;88.96;100136.81;1733500;80;26014;-66
2022/10/01 02:08:47;;;;;;;105.27;95.55;;;;;;;9.69;89.13;100133.88;1754147;80;25567;-67
2022/10/01 02:11:36;;;;;;;106.00;96.40;;;;;;;9.70;88.92;100140.86;1746772;80;27058;-68
2022/10/01 02:14:21;;;;;;;107.70;98.05;;;;;;;9.78;88.69;100161.74;1749902;79;25409;-68
2022/10/01 02:16:56;;;;;;;104.32;95.30;;;;;;;9.68;88.59;100143.86;1746435;80;25415;-69
2022/10/01 02:19:34;;;;;;;106.43;97.10;;;;;;;9.68;88.67;100150.62;1752644;79;26883;-68
2022/10/01 02:22:23;;;;;;;108.97;99.30;;;;;;;9.67;88.73;100146.88;1789814;79;25438;-68
2022/10/01 02:24:56;;;;;;;104.63;95.13;;;;;;;9.65;88.92;100145.03;1745173;78;27323;-66
2022/10/01 02:27:43;;;;;;;106.27;96.35;;;;;;;9.64;89.10;100151.00;1739114;80;27237;-68
2022/10/01 02:30:11;;;;;;;105.07;95.47;;;;;;;9.63;89.05;100149.39;1767334;79;25361;-67
2022/10/01 02:32:41;;;;;;;105.78;96.02;;;;;;;9.63;89.10;100147.25;1766543;78;25923;-68
2022/10/01 02:35:13;;;;;;;43.50;27.17;;;;;;;9.63;89.18;100145.90;1727078;83;25609;-68
2022/10/01 02:37:43;;;;;;;45.48;27.48;;;;;;;9.64;89.07;100151.56;1796515;79;27383;-67
2022/10/01 02:40:14;;;;;;;47.00;26.35;;;;;;;9.64;89.12;100146.16;1795050;79;25404;-66
2022/10/01 02:42:45;;;;;;;45.90;27.50;;;;;;;9.62;89.32;100139.70;1809197;78;25612;-66
2022/10/01 02:45:15;;;;;;;46.05;27.00;;;;;;;9.63;89.42;100137.80;1809198;78;25980;-66
2022/10/01 02:47:50;;;;;;;61.98;54.75;;;;;;;9.62;89.62;100133.48;1809323;78;25567;-68
2022/10/01 02:50:16;;;;;;;72.82;65.47;;;;;;;9.61;89.79;100131.34;1807372;79;27871;-68
2022/10/01 02:52:52;;;;;;;80.83;72.97;;;;;;;9.61;90.01;100131.34;1744775;80;25637;-68
2022/10/01 02:55:27;;;;;;;105.25;95.60;;;;;;;9.61;90.17;100126.51;1790478;79;25550;-67
2022/10/01 02:57:55;;;;;;;54.18;29.95;;;;;;;9.61;90.22;100125.16;1785154;78;25939;-67
2022/10/01 03:00:22;;;;;;;47.00;27.22;;;;;;;9.62;90.07;100120.80;1796979;78;25449;-68
2022/10/01 03:02:49;;;;;;;51.70;28.30;;;;;;;9.62;90.14;100112.70;1762405;80;27386;-67
2022/10/01 03:05:18;;;;;;;59.88;49.13;;;;;;;9.63;90.17;100119.69;1790302;79;25796;-66
2022/10/01 03:07:45;;;;;;;43.87;27.73;;;;;;;9.63;90.13;100112.93;1764519;78;25616;-66
2022/10/01 03:10:14;;;;;;;47.60;28.52;;;;;;;9.63;90.04;100116.98;1781070;79;26786;-68
2022/10/01 03:12:44;;;;;;;49.23;28.55;;;;;;;9.64;90.19;100115.89;1772825;80;25452;-66
2022/10/01 03:15:12;;;;;;;51.85;27.75;;;;;;;9.64;90.28;100112.40;1748045;80;27319;-66
2022/10/01 03:17:39;;;;;;;47.95;28.40;;;;;;;9.63;90.18;100102.13;1745394;80;25683;-65
2022/10/01 03:20:07;;;;;;;46.10;28.02;;;;;;;9.63;90.20;100099.43;1773601;79;25624;-66
2022/10/01 03:22:34;;;;;;;44.73;28.17;;;;;;;9.62;90.12;100100.55;1759422;80;26015;-66
2022/10/01 03:25:01;;;;;;;44.75;26.93;;;;;;;9.62;90.14;100091.63;1744524;80;25629;-67
2022/10/01 03:27:27;;;;;;;49.67;26.17;;;;;;;9.62;90.15;100088.93;1739769;80;27892;-68
2022/10/01 03:29:53;;;;;;;46.68;29.65;;;;;;;9.60;90.21;100083.05;1779461;80;25653;-68
2022/10/01 03:32:19;;;;;;;50.98;34.65;;;;;;;9.59;90.19;100078.20;1797502;78;25713;-68
2022/10/01 03:34:46;;;;;;;46.70;28.02;;;;;;;9.56;90.09;100069.36;1807817;78;26938;-66
2022/10/01 03:37:13;;;;;;;44.48;26.85;;;;;;;9.55;90.03;100069.11;1760348;80;25386;-68
2022/10/01 03:39:39;;;;;;;43.38;27.15;;;;;;;9.53;90.16;100068.09;1799227;78;27373;-68
2022/10/01 03:42:05;;;;;;;42.05;26.45;;;;;;;9.51;90.11;100071.63;1763205;80;25554;-68
2022/10/01 03:44:33;;;;;;;42.10;26.00;;;;;;;9.49;89.91;100075.75;1809632;78;25527;-68
2022/10/01 03:46:59;;;;;;;48.70;26.45;;;;;;;9.47;89.57;100078.75;1802922;78;25970;-68
2022/10/01 03:49:26;;;;;;;43.02;25.35;;;;;;;9.46;89.47;100078.50;1768569;78;25450;-68
2022/10/01 03:51:53;;;;;;;43.25;28.85;;;;;;;9.44;89.63;100070.48;1786127;79;27315;-66
2022/10/01 03:54:20;;;;;;;54.23;46.42;;;;;;;9.41;89.39;100074.57;1782140;80;25481;-67
2022/10/01 03:56:47;;;;;;;74.62;67.20;;;;;;;9.37;89.44;100072.25;1759679;80;25672;-68
2022/10/01 03:59:14;;;;;;;44.42;25.27;;;;;;;9.33;89.50;100081.52;1759664;80;26741;-66
2022/10/01 04:01:40;;;;;;;103.75;94.67;;;;;;;9.29;89.52;100083.77;1759891;80;25770;-66
2022/10/01 04:04:06;;;;;;;107.95;98.55;;;;;;;9.26;89.44;100090.59;1759502;80;27324;-66
2022/10/01 04:06:32;;;;;;;59.77;52.15;;;;;;;9.24;89.47;100094.13;1790573;78;25690;-66
2022/10/01 04:08:59;;;;;;;41.98;25.15;;;;;;;9.22;89.20;100098.24;1767948;80;25384;-66
2022/10/01 04:11:25;;;;;;;42.38;25.75;;;;;;;9.18;88.87;100094.54;1803296;78;26781;-66
2022/10/01 04:13:51;;;;;;;43.40;24.43;;;;;;;9.16;89.00;100097.56;1806993;78;25647;-66
2022/10/01 04:16:18;;;;;;;39.10;26.37;;;;;;;9.12;88.71;100102.75;1783618;78;27320;-66
2022/10/01 04:18:44;;;;;;;44.93;26.05;;;;;;;9.09;88.39;100107.95;1785336;78;25756;-66
2022/10/01 04:21:11;;;;;;;38.95;23.87;;;;;;;9.05;88.29;100108.33;1754859;80;25579;-66
2022/10/01 04:23:37;;;;;;;40.88;24.67;;;;;;;9.00;88.43;100109.78;1758892;80;25945;-66
2022/10/01 04:26:04;;;;;;;45.45;25.48;;;;;;;8.95;88.52;100107.98;1767276;80;25412;-66
2022/10/01 04:28:31;;;;;;;43.58;23.95;;;;;;;8.90;88.51;100104.84;1755619;81;28137;-66
2022/10/01 04:33:41;;;;;;;41.37;24.25;;;;;;;8.83;88.75;100104.45;1790194;79;25586;-65
2022/10/01 04:36:08;;;;;;;41.53;24.98;;;;;;;8.79;88.72;100100.77;1769965;79;28079;-68
2022/10/01 04:38:34;;;;;;;40.52;24.37;;;;;;;8.74;88.68;100097.63;1788233;79;25416;-68
2022/10/01 04:41:01;;;;;;;43.33;24.12;;;;;;;8.70;88.64;100096.64;1762416;79;27412;-68
2022/10/01 04:43:27;;;;;;;43.05;24.18;;;;;;;8.64;88.45;100103.22;1795515;79;25756;-68
2022/10/01 04:45:53;;;;;;;42.95;27.50;;;;;;;8.60;88.29;100100.89;1740482;81;25278;-68
2022/10/01 04:48:20;;;;;;;64.00;57.53;;;;;;;8.55;88.34;100103.69;1801614;79;26823;-68
2022/10/01 04:50:46;;;;;;;46.37;34.55;;;;;;;8.52;87.94;100109.67;1773527;79;25408;-66
2022/10/01 04:53:13;;;;;;;44.30;30.60;;;;;;;8.47;88.05;100106.52;1746413;80;27379;-68
2022/10/01 04:55:39;;;;;;;43.25;26.12;;;;;;;8.43;88.37;100102.83;1745831;80;25794;-68
2022/10/01 04:58:05;;;;;;;105.07;96.02;;;;;;;8.39;88.75;100110.69;1747506;80;25739;-68
2022/10/01 05:00:31;;;;;;;102.55;93.85;;;;;;;8.35;88.90;100103.48;1753785;80;35315;-67
2022/10/01 05:02:58;;;;;;;42.73;25.25;;;;;;;8.33;89.02;100105.69;1746069;80;25615;-67
2022/10/01 05:05:26;;;;;;;41.85;23.62;;;;;;;8.32;89.26;100102.73;1745698;80;27399;-67
2022/10/01 05:07:53;;;;;;;43.78;24.57;;;;;;;8.31;89.37;100099.78;1745977;80;25461;-68
2022/10/01 05:10:23;;;;;;;43.63;23.22;;;;;;;8.30;89.85;100088.77;1743108;80;25568;-67
2022/10/01 05:12:50;;;;;;;44.08;39.70;;;;;;;8.30;90.13;100086.07;1744895;80;25928;-67
2022/10/01 05:15:18;;;;;;;95.05;86.63;;;;;;;8.31;90.57;100084.95;1737594;80;25583;-67
2022/10/01 05:17:45;;;;;;;41.13;24.35;;;;;;;8.32;90.79;100086.01;1769714;80;27383;-67
2022/10/01 05:20:22;;;;;;;45.63;27.13;;;;;;;8.34;91.11;100085.71;1784783;79;25807;-67
2022/10/01 05:22:50;;;;;;;103.32;94.32;;;;;;;8.36;91.17;100090.25;1739018;80;25623;-66
2022/10/01 05:25:18;;;;;;;42.88;23.75;;;;;;;8.38;91.41;100088.87;1769777;79;25978;-66
2022/10/01 05:27:45;;;;;;;43.02;25.65;;;;;;;8.41;91.48;100090.15;1780610;79;25562;-67
2022/10/01 05:30:22;;;;;;;44.05;24.57;;;;;;;8.42;91.77;100089.06;1793586;79;27963;-68
2022/10/01 05:32:42;;;;;;;42.35;23.77;;;;;;;8.48;92.20;100089.26;1788961;78;25460;-67
2022/10/01 05:35:09;;;;;;;91.00;82.78;;;;;;;8.52;92.55;100089.45;1795512;78;25488;-67
2022/10/01 05:37:35;;;;;;;44.10;24.87;;;;;;;8.58;92.62;100094.97;1763781;80;34983;-67
2022/10/01 05:40:02;;;;;;;41.02;24.70;;;;;;;8.63;92.64;100098.13;1734517;81;25411;-68
2022/10/01 05:42:29;;;;;;;71.85;65.12;;;;;;;8.66;92.71;100093.48;1801978;78;27381;-67
2022/10/01 05:44:55;;;;;;;44.48;25.68;;;;;;;8.69;92.82;100090.20;1823898;78;25761;-68
2022/10/01 05:47:22;;;;;;;44.90;27.10;;;;;;;8.74;92.93;100094.14;1823880;78;25363;-67
2022/10/01 05:49:48;;;;;;;47.15;27.02;;;;;;;8.78;93.09;100099.16;1823846;78;28128;-66
2022/10/01 05:52:15;;;;;;;47.75;27.40;;;;;;;8.82;93.10;100103.40;1823984;78;25418;-67
2022/10/01 05:54:41;;;;;;;47.73;28.52;;;;;;;8.86;93.35;100103.85;1823892;78;27308;-67
2022/10/01 05:57:09;;;;;;;56.00;29.70;;;;;;;8.90;93.33;100102.14;1823909;78;25430;-67
2022/10/01 05:59:36;;;;;;;54.00;28.42;;;;;;;8.94;93.41;100103.14;1789171;78;25567;-68
2022/10/01 06:02:03;;;;;;;51.53;30.45;;;;;;;8.97;93.63;100099.85;1790443;78;25936;-67
2022/10/01 06:04:29;;;;;;;54.60;30.75;;;;;;;9.02;93.63;100098.92;1800946;78;25548;-68
2022/10/01 06:06:56;;;;;;;48.35;27.30;;;;;;;9.03;93.40;100098.39;1771485;78;28068;-68
2022/10/01 06:09:22;;;;;;;53.87;29.77;;;;;;;9.05;93.74;100102.37;1806788;78;25553;-66
2022/10/01 06:11:49;;;;;;;51.80;30.23;;;;;;;9.12;94.00;100102.75;1786811;78;25410;-67
2022/10/01 06:14:16;;;;;;;47.73;27.67;;;;;;;9.18;94.16;100102.63;1762382;80;25941;-66
2022/10/01 06:16:42;;;;;;;102.47;93.17;;;;;;;9.22;94.33;100103.08;1761858;80;25573;-67
2022/10/01 06:19:08;;;;;;;50.95;30.27;;;;;;;9.27;94.27;100106.22;1768807;80;28082;-67
2022/10/01 06:21:34;;;;;;;152.72;85.50;;;;;;;9.31;94.07;100113.41;1753404;81;25692;-67
2022/10/01 06:24:00;;;;;;;66.57;37.08;;;;;;;9.34;94.10;100106.03;1782847;78;25506;-67
2022/10/01 06:26:27;;;;;;;50.10;29.35;;;;;;;9.41;94.54;100114.27;1768277;79;34783;-67
2022/10/01 06:28:53;;;;;;;46.77;27.82;;;;;;;9.47;94.80;100100.92;1797040;78;25745;-66
2022/10/01 06:31:20;;;;;;;111.17;97.42;;;;;;;9.53;94.80;100107.77;1758737;80;27501;-66
2022/10/01 06:33:47;;;;;;;63.58;34.15;;;;;;;9.60;95.22;100102.73;1786440;78;25470;-66
2022/10/01 06:36:13;;;;;;;64.25;56.83;;;;;;;9.68;95.59;100102.00;1770407;80;25408;-67
2022/10/01 06:38:39;;;;;;;66.57;55.20;;;;;;;9.77;95.71;100105.33;1773525;80;26851;-66
2022/10/01 06:41:06;;;;;;;55.30;31.00;;;;;;;9.84;95.48;100101.09;1773826;80;25385;-66
2022/10/01 06:43:32;;;;;;;51.58;30.10;;;;;;;9.89;95.28;100103.67;1816207;78;27341;-66
2022/10/01 06:46:04;;;;;;;52.05;29.55;;;;;;;9.92;94.81;100096.84;1823832;78;25540;-68
2022/10/01 06:48:31;;;;;;;52.20;28.38;;;;;;;9.96;94.78;100097.02;1823857;78;25698;-66
2022/10/01 06:50:58;;;;;;;53.15;29.15;;;;;;;10.00;94.60;100100.15;1823900;78;25923;-67
2022/10/01 06:53:27;;;;;;;52.05;27.90;;;;;;;10.03;94.54;100094.69;1803628;78;25394;-67
2022/10/01 06:55:54;;;;;;;59.93;41.40;;;;;;;10.07;94.88;100099.14;1799264;78;28036;-67
2022/10/01 06:58:25;;;;;;;60.75;44.88;;;;;;;10.15;95.01;100100.84;1801781;78;25449;-66
2022/10/01 07:00:52;;;;;;;58.13;32.03;;;;;;;10.23;95.51;100098.73;1803043;78;25380;-67
2022/10/01 07:03:21;;;;;;;56.40;30.23;;;;;;;10.29;95.29;100098.30;1769051;80;25538;-67
2022/10/01 07:05:49;;;;;;;51.67;30.23;;;;;;;10.36;95.12;100093.83;1760000;80;25548;-66
2022/10/01 07:08:16;;;;;;;61.13;41.08;;;;;;;10.42;94.65;100097.99;1764758;80;27971;-67
2022/10/01 07:10:44;;;;;;;59.25;32.05;;;;;;;10.53;95.55;100095.80;1768258;78;25691;-67
2022/10/01 07:13:15;;;;;;;55.85;31.82;;;;;;;10.62;95.52;100095.82;1756843;80;25411;-66
2022/10/01 07:15:42;;;;;;;58.95;31.93;;;;;;;10.68;94.37;100090.52;1759721;80;25922;-66
2022/10/01 07:18:09;;;;;;;51.37;29.23;;;;;;;10.74;94.45;100095.22;1769444;80;25625;-68
2022/10/01 07:20:38;;;;;;;55.80;29.80;;;;;;;10.80;93.90;100089.34;1772244;78;27386;-67
2022/10/01 07:23:06;;;;;;;68.70;53.73;;;;;;;10.86;94.50;100092.69;1759070;80;25643;-67
2022/10/01 07:25:32;;;;;;;81.50;72.27;;;;;;;10.96;95.16;100090.25;1764743;78;25528;-67
2022/10/01 07:28:03;;;;;;;49.98;29.55;;;;;;;11.11;95.54;100094.41;1776553;80;25940;-68
2022/10/01 07:30:30;;;;;;;52.13;28.42;;;;;;;11.16;94.18;100091.55;1774611;80;25507;-67
2022/10/01 07:32:57;;;;;;;52.43;28.80;;;;;;;11.27;94.88;100086.61;1765474;80;27362;-67
2022/10/01 07:35:25;;;;;;;52.95;30.92;;;;;;;11.47;96.15;100088.67;1759903;80;25555;-66
2022/10/01 07:37:52;;;;;;;55.15;30.82;;;;;;;11.70;95.63;100091.23;1804844;78;25444;-67
2022/10/01 07:40:19;;;;;;;48.10;29.10;;;;;;;11.98;97.44;100087.59;1761882;80;25983;-67
2022/10/01 07:42:56;;;;;;;45.73;28.60;;;;;;;12.11;94.89;100091.23;1791422;79;25393;-67
2022/10/01 07:45:24;;;;;;;40.83;25.05;;;;;;;12.22;93.63;100087.03;1791511;80;26988;-68
2022/10/01 07:47:59;;;;;;;42.67;26.07;;;;;;;12.31;92.39;100083.74;1805288;78;25379;-66
2022/10/01 07:50:33;;;;;;;43.35;24.70;;;;;;;12.39;92.04;100082.67;1767605;78;25558;-66
2022/10/01 07:52:58;;;;;;;34.18;22.10;;;;;;;12.71;94.17;100086.66;1759596;80;26658;-66
2022/10/01 07:55:29;;;;;;;33.58;21.55;;;;;;;12.78;90.87;100089.64;1760366;80;25581;-67
2022/10/01 07:58:00;;;;;;;38.08;29.85;;;;;;;12.77;88.92;100099.47;1772280;80;27276;-66
2022/10/01 08:00:29;;;;;;;32.78;20.70;;;;;;;12.73;87.93;100090.40;1746921;80;25783;-66
2022/10/01 08:02:56;;;;;;;32.38;20.23;;;;;;;12.70;87.55;100091.84;1763968;79;25579;-68
2022/10/01 08:05:32;;;;;;;34.30;21.42;;;;;;;12.67;87.01;100097.94;1756687;80;25929;-67
2022/10/01 08:08:02;;;;;;;32.30;21.57;;;;;;;12.80;87.41;100100.95;1758512;80;25716;-66
2022/10/01 08:10:29;;;;;;;31.87;20.70;;;;;;;12.88;87.01;100097.97;1777546;80;27338;-66
2022/10/01 08:13:07;;;;;;;38.35;21.75;;;;;;;13.02;88.03;100095.79;1768175;80;25785;-66
2022/10/01 08:15:32;;;;;;;32.30;20.55;;;;;;;13.20;88.07;100097.05;1787193;79;25839;-65
2022/10/01 08:18:02;;;;;;;38.80;20.97;;;;;;;13.40;88.46;100100.89;1771117;80;25978;-64
2022/10/01 08:20:28;;;;;;;32.83;20.45;;;;;;;13.54;87.46;100097.34;1761614;78;25757;-66
2022/10/01 08:23:04;;;;;;;27.93;18.50;;;;;;;13.66;86.49;100090.38;1770328;78;26745;-65
2022/10/01 08:25:30;;;;;;;27.82;18.17;;;;;;;14.10;87.64;100094.80;1766955;78;25700;-65
2022/10/01 08:27:57;;;;;;;34.53;30.05;;;;;;;14.59;88.69;100088.62;1780932;78;25731;-66
2022/10/01 08:30:24;;;;;;;26.27;18.50;;;;;;;15.42;89.08;100087.20;1771628;78;25985;-66
2022/10/01 08:32:57;;;;;;;89.65;82.97;;;;;;;15.79;85.47;100076.74;1752433;81;25796;-66
2022/10/01 08:35:24;;;;;;;89.75;83.30;;;;;;;16.15;84.28;100074.34;1732051;81;27503;-66
2022/10/01 08:37:51;;;;;;;25.17;15.68;;;;;;;16.67;83.83;100074.39;1709484;82;25448;-66
2022/10/01 08:40:20;;;;;;;20.12;13.62;;;;;;;17.01;79.44;100072.05;1742724;81;25558;-66
2022/10/01 08:42:53;;;;;;;20.13;14.77;;;;;;;17.17;77.67;100068.11;1715951;82;25959;-66
2022/10/01 08:45:25;;;;;;;18.75;13.93;;;;;;;17.78;79.67;100063.62;1746762;81;25421;-67
2022/10/01 08:48:18;;;;;;;18.20;12.80;;;;;;;18.69;77.68;100061.97;1761981;81;28163;-67
2022/10/01 08:50:56;;;;;;;17.95;12.23;;;;;;;19.12;74.28;100065.89;1763392;81;26248;-67
2022/10/01 08:53:36;;;;;;;20.02;13.53;;;;;;;19.43;72.60;100057.86;1724504;81;25683;-65
2022/10/01 08:56:05;;;;;;;19.17;13.68;;;;;;;19.57;70.04;100053.11;1735866;81;26118;-69
2022/10/01 08:58:39;;;;;;;23.97;17.77;;;;;;;19.35;68.22;100054.23;1755337;81;25563;-68
2022/10/01 09:01:12;;;;;;;26.27;17.67;;;;;;;19.20;67.86;100057.97;1726180;82;28138;-66
2022/10/01 09:03:39;;;;;;;20.52;14.00;;;;;;;19.12;67.42;100051.63;1730877;81;25689;-67
2022/10/01 09:06:25;;;;;;;17.95;13.68;;;;;;;19.16;67.62;100053.05;1725611;82;25682;-67
2022/10/01 09:09:21;;;;;;;18.90;13.53;;;;;;;19.11;65.50;100052.00;1714527;81;25969;-66
2022/10/01 09:12:22;;;;;;;18.37;13.10;;;;;;;18.80;64.77;100045.11;1720448;81;25629;-66
2022/10/01 09:15:00;;;;;;;18.73;14.05;;;;;;;19.08;66.89;100044.52;1722399;82;27934;-68
2022/10/01 09:17:50;;;;;;;17.98;14.38;;;;;;;20.10;67.72;100039.12;1706092;82;27262;-68
2022/10/01 09:20:38;;;;;;;17.07;13.53;;;;;;;19.95;63.28;100026.45;1714478;82;25718;-65
2022/10/01 09:23:30;;;;;;;16.90;12.63;;;;;;;20.01;64.21;100018.08;1712902;82;28093;-68
2022/10/01 09:25:58;;;;;;;17.37;13.03;;;;;;;20.28;63.03;100024.17;1684434;83;25833;-66
2022/10/01 09:28:33;;;;;;;18.57;14.70;;;;;;;20.43;63.18;100018.77;1720479;82;27316;-66
2022/10/01 09:31:24;;;;;;;23.67;14.75;;;;;;;20.87;64.14;100013.17;1719650;82;26456;-67
2022/10/01 09:33:59;;;;;;;16.05;12.43;;;;;;;21.36;61.90;100019.81;1762967;79;25683;-68
2022/10/01 09:36:58;;;;;;;16.80;13.10;;;;;;;20.99;59.29;100006.52;1767873;79;25986;-68
2022/10/01 09:39:29;;;;;;;16.45;12.60;;;;;;;20.49;57.87;100010.37;1736517;81;25904;-68
2022/10/01 09:41:55;;;;;;;13.22;10.85;;;;;;;19.99;58.54;100005.89;1754096;79;27302;-68
2022/10/01 09:44:29;;;;;;;13.80;10.98;;;;;;;19.75;58.93;100007.47;1772693;79;25704;-68
2022/10/01 09:46:56;;;;;;;14.85;11.53;;;;;;;19.20;56.79;100008.04;1789037;79;25959;-68
2022/10/01 09:49:33;;;;;;;11.90;10.45;;;;;;;18.61;57.70;100005.50;1768356;79;26697;-69
2022/10/01 09:52:28;;;;;;;13.68;11.73;;;;;;;18.14;58.50;100011.67;1770610;79;25572;-69
2022/10/01 09:55:06;;;;;;;12.73;10.20;;;;;;;17.90;59.83;100008.75;1760698;81;27480;-70
2022/10/01 09:57:42;;;;;;;13.78;10.88;;;;;;;17.60;60.20;100008.58;1736631;79;25752;-70
2022/10/01 10:00:18;;;;;;;14.90;10.63;;;;;;;17.27;59.90;99998.41;1752591;79;25571;-70
2022/10/01 10:02:50;;;;;;;15.30;11.78;;;;;;;16.89;60.54;100000.02;1736271;81;27105;-70
2022/10/01 10:05:26;;;;;;;17.45;12.55;;;;;;;16.60;61.18;100004.84;1737199;81;25440;-70
2022/10/01 10:08:01;;;;;;;14.40;11.30;;;;;;;16.24;61.24;100002.66;1756087;79;27179;-68
2022/10/01 10:10:38;;;;;;;19.82;14.25;;;;;;;15.93;62.61;99998.59;1766996;79;25660;-69
2022/10/01 10:13:30;;;;;;;19.73;14.07;;;;;;;15.74;63.45;100003.34;1739806;79;25635;-72
2022/10/01 10:15:57;;;;;;;18.82;13.05;;;;;;;15.47;63.69;99999.73;1774409;79;26000;-71
2022/10/01 10:18:37;;;;;;;21.02;12.23;;;;;;;15.18;64.03;99988.64;1750231;79;25699;-67
2022/10/01 10:21:16;;;;;;;16.37;11.95;;;;;;;15.06;65.02;99995.50;1772445;79;28276;-70
2022/10/01 10:23:58;;;;;;;13.75;11.10;;;;;;;14.92;65.20;99985.79;1766452;80;25649;-69
2022/10/01 10:26:37;;;;;;;14.73;12.00;;;;;;;14.72;65.22;99993.56;1750006;80;25682;-69
2022/10/01 10:29:07;;;;;;;18.87;12.23;;;;;;;14.48;65.58;99991.08;1753165;80;26399;-69
2022/10/01 10:31:44;;;;;;;;;;;;;;;14.29;66.28;99987.59;1754078;79;25782;-69
2022/10/01 10:34:35;;;;;;;17.27;12.85;;;;;;;14.17;66.93;99984.30;1771790;79;27424;-69
2022/10/01 10:37:07;;;;;;;16.42;12.10;;;;;;;14.09;67.82;99983.06;1766294;79;25679;-69
2022/10/01 10:39:37;;;;;;;17.77;12.53;;;;;;;13.91;68.09;99973.77;1779066;79;25682;-67
2022/10/01 10:42:05;;;;;;;15.00;11.50;;;;;;;13.79;68.44;99965.04;1785351;78;26276;-68
2022/10/01 10:44:37;;;;;;;17.98;12.13;;;;;;;13.68;68.87;99965.23;1818573;78;25791;-68
2022/10/01 10:47:14;;;;;;;18.73;12.47;;;;;;;13.58;69.05;99958.31;1819723;78;27455;-67
2022/10/01 10:49:57;;;;;;;16.57;11.73;;;;;;;13.49;69.25;99954.13;1802104;79;25707;-67
2022/10/01 10:52:34;;;;;;;15.83;11.73;;;;;;;13.36;69.59;99952.72;1797884;78;25686;-67
2022/10/01 10:55:25;;;;;;;17.15;12.50;;;;;;;13.24;69.98;99949.94;1801055;78;25932;-68
2022/10/01 10:57:52;;;;;;;15.65;11.50;;;;;;;13.18;70.48;99947.23;1804628;78;25731;-67
2022/10/01 11:00:22;;;;;;;16.27;12.13;;;;;;;13.09;70.90;99939.14;1831403;78;27999;-68
2022/10/01 11:02:54;;;;;;;16.57;12.33;;;;;;;13.01;71.18;99927.25;1815500;78;25521;-69
2022/10/01 11:05:30;;;;;;;17.12;12.65;;;;;;;12.98;71.79;99937.98;1793630;78;25830;-67
2022/10/01 11:08:02;;;;;;;16.30;13.13;;;;;;;12.96;72.12;99928.81;1745755;81;25918;-67
2022/10/01 11:11:05;;;;;;;17.05;14.03;;;;;;;12.95;72.20;99920.43;1775350;79;25787;-68
2022/10/01 11:13:57;;;;;;;18.65;12.10;;;;;;;12.94;72.57;99925.64;1760957;79;25784;-68
2022/10/01 11:16:59;;;;;;;15.88;11.68;;;;;;;12.95;72.53;99915.00;1730342;81;26812;-67
2022/10/01 11:19:55;;;;;;;48.75;39.98;;;;;;;12.94;72.63;99911.26;1608769;88;25805;-67
2022/10/01 11:22:35;;;;;;;29.35;19.80;;;;;;;12.96;73.47;99907.09;1611292;88;27144;-68
2022/10/01 11:25:24;;;;;;;19.07;14.80;;;;;;;13.03;73.93;99905.20;1614199;88;25773;-69
2022/10/01 11:28:21;;;;;;;;;;;;;;;13.15;73.91;99903.09;1627061;87;27546;-68
2022/10/01 11:31:05;;;;;;;18.05;13.38;;;;;;;13.19;73.65;99896.63;1590034;89;25909;-67
2022/10/01 11:33:56;;;;;;;17.48;13.58;;;;;;;13.22;73.78;99892.45;1634559;86;25769;-66
2022/10/01 11:36:37;;;;;;;19.02;15.00;;;;;;;13.24;73.90;99886.13;1630441;86;26752;-68
2022/10/01 11:39:12;;;;;;;17.80;12.73;;;;;;;13.23;73.72;99884.55;1628398;87;25772;-67